Sankuniki — JD2465 — position and weather

sailwx.info

Track history (hours):
 
Tides and Currents Weather Stations Pressure Air Temp Water Temp Dewpoint Dewpoint Depression Visibility Wind Speed Wind Dir Waves Ship Positions

Sankuniki

Last reported at 2015-May-06 13:33 UTC. Time now 2015-May-06 14:29 UTC.
Position N 34°15' E 135°07'.

Length 71 m; draft 4.2 m.

Type: Cargo ship. MMSI: 431000269.

Date/timePositionNaut miles runAvg speedWind from/ knotsBaromVisibWave heightAir tempDewpointWater temp
2015-May-06 13:33N 34°15' E 135°07'0 0.0
2015-May-06 12:33N 34°15' E 135°07'0 0.0
2015-May-06 11:33N 34°15' E 135°07'0 0.0
2015-May-06 10:33N 34°15' E 135°07'0 0.0
2015-May-06 09:33N 34°15' E 135°07'0 0.0
2015-May-06 08:33N 34°15' E 135°07'0 0.0
2015-May-06 07:33N 34°15' E 135°07'3 2.5
2015-May-06 06:33N 34°13' E 135°05'  
2015-May-03 08:32N 34°06' E 135°04'9 9.0
2015-May-03 07:34N 34°15' E 135°07'0 0.1
2015-May-03 06:33N 34°15' E 135°07'0 0.0
2015-May-03 05:34N 34°15' E 135°07'0 0.0
2015-May-03 04:33N 34°15' E 135°07'0 0.0
2015-May-03 03:33N 34°15' E 135°07'0 0.0
2015-May-03 02:33N 34°15' E 135°07'0 0.0
2015-May-03 01:33N 34°15' E 135°07'0 0.0
2015-May-03 00:33N 34°15' E 135°07'0 0.0
2015-May-02 23:33N 34°15' E 135°07'0 0.0
2015-May-02 22:33N 34°15' E 135°07'0 0.0
2015-May-02 21:33N 34°15' E 135°07'1 1.0
2015-May-02 20:34N 34°15' E 135°06'0 0.0
2015-May-02 19:33N 34°15' E 135°06'0 0.0
2015-May-02 18:33N 34°15' E 135°06'0 0.0
2015-May-02 17:33N 34°15' E 135°06'0 0.1
2015-May-02 16:34N 34°15' E 135°06'0 0.1
2015-May-02 15:33N 34°15' E 135°06'0 0.0
2015-May-02 14:33N 34°15' E 135°06'0 0.0
2015-May-02 13:33N 34°15' E 135°06'6 4.9
2015-May-02 12:18N 34°17' E 134°59'811.3
2015-May-02 11:33N 34°25' E 135°01'1111.0
2015-May-02 10:33N 34°36' E 135°03'9 8.8
2015-May-02 09:31N 34°38' E 134°52'  
Track history (hours):
 
Tides and Currents Weather Stations Pressure Air Temp Water Temp Dewpoint Dewpoint Depression Visibility Wind Speed Wind Dir Waves Ship Positions

Sankuniki

Last reported at 2015-May-06 13:33 UTC. Time now 2015-May-06 14:29 UTC.
Position N 34°15' E 135°07'.

Length 71 m; draft 4.2 m.

Type: Cargo ship. MMSI: 431000269.

Date/timePositionNaut miles runAvg speedWind from/ knotsBaromVisibWave heightAir tempDewpointWater temp
2015-May-06 13:33N 34°15' E 135°07'0 0.0
2015-May-06 12:33N 34°15' E 135°07'0 0.0
2015-May-06 11:33N 34°15' E 135°07'0 0.0
2015-May-06 10:33N 34°15' E 135°07'0 0.0
2015-May-06 09:33N 34°15' E 135°07'0 0.0
2015-May-06 08:33N 34°15' E 135°07'0 0.0
2015-May-06 07:33N 34°15' E 135°07'3 2.5
2015-May-06 06:33N 34°13' E 135°05'  
2015-May-03 08:32N 34°06' E 135°04'9 9.0
2015-May-03 07:34N 34°15' E 135°07'0 0.1
2015-May-03 06:33N 34°15' E 135°07'0 0.0
2015-May-03 05:34N 34°15' E 135°07'0 0.0
2015-May-03 04:33N 34°15' E 135°07'0 0.0
2015-May-03 03:33N 34°15' E 135°07'0 0.0
2015-May-03 02:33N 34°15' E 135°07'0 0.0
2015-May-03 01:33N 34°15' E 135°07'0 0.0
2015-May-03 00:33N 34°15' E 135°07'0 0.0
2015-May-02 23:33N 34°15' E 135°07'0 0.0
2015-May-02 22:33N 34°15' E 135°07'0 0.0
2015-May-02 21:33N 34°15' E 135°07'1 1.0
2015-May-02 20:34N 34°15' E 135°06'0 0.0
2015-May-02 19:33N 34°15' E 135°06'0 0.0
2015-May-02 18:33N 34°15' E 135°06'0 0.0
2015-May-02 17:33N 34°15' E 135°06'0 0.1
2015-May-02 16:34N 34°15' E 135°06'0 0.1
2015-May-02 15:33N 34°15' E 135°06'0 0.0
2015-May-02 14:33N 34°15' E 135°06'0 0.0
2015-May-02 13:33N 34°15' E 135°06'6 4.9
2015-May-02 12:18N 34°17' E 134°59'811.3
2015-May-02 11:33N 34°25' E 135°01'1111.0
2015-May-02 10:33N 34°36' E 135°03'9 8.8
2015-May-02 09:31N 34°38' E 134°52'  

Dump ship's entire track history